Airfield :
LOGIN :

Register | Disclaimer

   EN    FR    IT 

 










Legend :    VFR   Marginal VFR   IFR   Intensive IFR   Very Intensive IFR
Visi :
Ceiling :
>= 8 km
>= 3000ft
5 to 8 km
1000 to 3000 ft
1500m to 5 km
500 to 1000 ft
800 to 1500m
200 to 500 ft
< 800m
< 200 ft
Symbols :   Thunderstorms  Fog  Heavy snow  Heavy precipitations  Wind > 20 kt
SIGMETs :     Misc.  Thunderstorms  Icing  Turbulence  Mountain Waves  Volcanic Ashes







- Airport Elevation : 779 ft
- IATA code : CMF
- Download approach charts


LFLB - Chambery / Aix-Les-Bains

CURRENT METAR :
  • 182100Z AUTO 03003KT 330V060 9999 FEW015 BKN035 05/03 Q1024 NOSIG

EXPIRED METARs :
  • 182030Z AUTO VRB03KT 9999 BKN035 06/02 Q1024 NOSIG
  • 182000Z AUTO 36006KT 9999 FEW018 OVC036 06/03 Q1024 NOSIG
  • 181930Z AUTO 02005KT 340V060 9999 FEW020 OVC036 06/03 Q1024 NOSIG
  • 181900Z AUTO 05003KT 9999 FEW021 OVC035 06/03 Q1024 NOSIG
  • 181830Z AUTO VRB01KT 9999 OVC036 07/03 Q1024 NOSIG

TAF TAF LFLB
Valid from the 18 at 18:00 until the 19 at 18:00 UTC


181700Z 1818/1918 34005KT 9999 BKN035
PROB30
TEMPO 1900/1906 3000 BR
PROB30
TEMPO 1910/1913 -RA
No reported NOTAMs for that airfield.



MET'MAP, your aeronautical weather chart ! - Copyright ORBIFLY December 2007 - Disclaimer

ORBIFLY MET'MAP TEAM :

Programming & Development : Alexandra Zaïnal
Concept & Development : Baudouin d'Aumeries
Co-Development & Prog : Marc-Olivier Méhu
Technical & hardware support : Manuel Goepfert

Contact : metmap@orbifly.com




SOURCES & CREDITS :

   NOAA